Terminal Aerodrome Forecast
Issued by NWS Albuquerque, NM

Home | Current Version | Previous Version | Text Only | Print | Product List | Glossary On
Versions: 1 2 3 4 5 6 7 8 9 10 11 12 13 14 15 16
000
FTUS45 KABQ 271123
TAFABQ
TAF
KABQ 271123Z 2712/2812 VRB05KT P6SM FEW150
     FM272100 33006KT P6SM FEW100 SCT150
     FM280000 09013KT P6SM VCSH BKN100
     FM280300 09006KT P6SM FEW150=

USA.gov is the U.S. government's official web portal to all federal, state and local government web resources and services.